This is the latest recevied weather packets stored in our database for station/object SP6KBU-8. If no packets are shown the sender has not sent any weather packets the latest 10 day(s).
| Time | Temp. | Humidity | Pressure | Rain* | Wind** | Luminosity | Snow |
|---|---|---|---|---|---|---|---|
| 1777698460 | 12.78° C | 50% | 1026.5 hPa | - | - | - | - |
| 1777697559 | 11.67° C | 54% | 1026.4 hPa | - | - | - | - |
| 1777696663 | 10.56° C | 57% | 1026.5 hPa | - | - | - | - |
| 1777695763 | 8.89° C | 62% | 1026.6 hPa | - | - | - | - |
| 1777694861 | 8.33° C | 63% | 1026.5 hPa | - | - | - | - |
| 1777693964 | 8.33° C | 63% | 1026.5 hPa | - | - | - | - |
| 1777693064 | 8.33° C | 63% | 1026.6 hPa | - | - | - | - |
| 1777692160 | 8.33° C | 63% | 1026.6 hPa | - | - | - | - |
| 1777691259 | 8.33° C | 63% | 1026.6 hPa | - | - | - | - |
| 1777690360 | 8.33° C | 62% | 1026.7 hPa | - | - | - | - |
| 1777689465 | 8.33° C | 63% | 1026.7 hPa | - | - | - | - |
| 1777688563 | 8.33° C | 63% | 1026.8 hPa | - | - | - | - |
| 1777687665 | 8.33° C | 63% | 1026.6 hPa | - | - | - | - |
| 1777686766 | 8.33° C | 62% | 1026.9 hPa | - | - | - | - |
| 1777684967 | 8.89° C | 62% | 1026.8 hPa | - | - | - | - |
| 1777684072 | 8.89° C | 62% | 1027 hPa | - | - | - | - |
| 1777683169 | 8.89° C | 61% | 1027 hPa | - | - | - | - |
| 1777682271 | 9.44° C | 60% | 1027.1 hPa | - | - | - | - |
| 1777681372 | 8.89° C | 60% | 1027.2 hPa | - | - | - | - |
| 1777680475 | 9.44° C | 61% | 1027.4 hPa | - | - | - | - |
| 1777679575 | 9.44° C | 61% | 1027.3 hPa | - | - | - | - |
| 1777678677 | 9.44° C | 61% | 1027.3 hPa | - | - | - | - |
| 1777677778 | 9.44° C | 60% | 1027.3 hPa | - | - | - | - |
| 1777676879 | 9.44° C | 60% | 1027.3 hPa | - | - | - | - |
| 1777675981 | 9.44° C | 59% | 1027.3 hPa | - | - | - | - |
* Rain since midnight (hover to see other rain measurements)
** Current wind speed in m/s (hover to see current wind gust speed)